Time;durP1;ratioP1;P1;durP2;ratioP2;P2;SDS_P1;SDS_P2;PMS_P1;PMS_P2;Temp;Humidity;BMP_temperature;BMP_pressure;BME280_temperature;BME280_humidity;BME280_pressure;Samples;Min_cycle;Max_cycle;Signal;HPM_P1;HPM_P2
2023/12/03 00:02:04;;;;;;;;;;;;;;;15.87;53.71;99735.84;4958376;28;1133;-47
2023/12/03 00:04:30;;;;;;;;;;;;;;;15.73;53.52;99729.94;4953360;28;1117;-46
2023/12/03 00:06:55;;;;;;;;;;;;;;;15.65;53.38;99727.94;4951069;28;1095;-47
2023/12/03 00:09:21;;;;;;;;;;;;;;;16.61;54.50;99733.91;4963745;28;1127;-46
2023/12/03 00:11:47;;;;;;;;;;;;;;;16.69;53.75;99743.81;4965580;28;1965;-47
2023/12/03 00:14:12;;;;;;;;;;;;;;;16.21;54.31;99754.19;4957744;28;1114;-47
2023/12/03 00:16:37;;;;;;;;;;;;;;;15.93;54.24;99745.97;4958711;28;1092;-48
2023/12/03 00:19:03;;;;;;;;;;;;;;;15.79;53.94;99753.28;4958382;28;1104;-48
2023/12/03 00:21:28;;;;;;;;;;;;;;;15.67;53.53;99755.16;4958393;28;842;-49
2023/12/03 00:23:54;;;;;;;;;;;;;;;16.18;54.67;99766.88;4958279;28;1090;-48
2023/12/03 00:26:19;;;;;;;;;;;;;;;17.13;53.01;99770.00;4956972;28;1208;-46
2023/12/03 00:28:45;;;;;;;;;;;;;;;16.45;53.94;99773.41;4970917;28;1069;-47
2023/12/03 00:31:11;;;;;;;;;;;;;;;16.12;53.91;99774.41;4957960;28;1902;-45
2023/12/03 00:33:36;;;;;;;;;;;;;;;15.95;53.68;99772.34;4958290;28;1185;-50
2023/12/03 00:36:02;;;;;;;;;;;;;;;15.82;53.77;99768.09;4958144;28;1085;-48
2023/12/03 00:38:27;;;;;;;;;;;;;;;15.69;53.57;99773.59;4957548;28;1143;-45
2023/12/03 00:40:53;;;;;;;;;;;;;;;15.65;53.59;99775.66;4960529;28;1133;-46
2023/12/03 00:43:18;;;;;;;;;;;;;;;16.73;54.14;99782.38;4960715;28;1053;-48
2023/12/03 00:45:44;;;;;;;;;;;;;;;16.81;53.30;99768.44;4960202;28;898;-47
2023/12/03 00:48:09;;;;;;;;;;;;;;;16.25;54.05;99755.59;4960878;28;1200;-45
2023/12/03 00:50:35;;;;;;;;;;;;;;;15.97;54.07;99768.56;4960674;28;1977;-49
2023/12/03 00:53:01;;;;;;;;;;;;;;;15.92;53.53;99765.47;4960299;28;981;-48
2023/12/03 00:55:26;;;;;;;;;;;;;;;15.77;53.52;99765.84;4960255;28;1084;-50
2023/12/03 00:57:52;;;;;;;;;;;;;;;15.64;53.39;99774.00;4959894;28;1053;-46
2023/12/03 01:00:17;;;;;;;;;;;;;;;15.71;54.27;99792.03;4960341;28;1033;-47
2023/12/03 01:02:43;;;;;;;;;;;;;;;16.87;54.19;99786.47;4960250;28;1116;-47
2023/12/03 01:05:08;;;;;;;;;;;;;;;16.59;53.84;99791.59;4960933;28;1148;-49
2023/12/03 01:07:34;;;;;;;;;;;;;;;16.15;54.18;99794.50;4960140;28;1100;-46
2023/12/03 01:10:00;;;;;;;;;;;;;;;15.93;54.29;99787.53;4959752;28;924;-48
2023/12/03 01:12:25;;;;;;;;;;;;;;;15.83;53.95;99792.81;4962990;28;1911;-45
2023/12/03 01:14:51;;;;;;;;;;;;;;;15.71;53.50;99798.19;4970748;28;1164;-45
2023/12/03 01:17:16;;;;;;;;;;;;;;;15.61;53.32;99803.41;4959763;28;1113;-46
2023/12/03 01:19:42;;;;;;;;;;;;;;;15.55;53.16;99790.66;4959946;28;1080;-47
2023/12/03 01:22:07;;;;;;;;;;;;;;;16.36;55.01;99783.00;4962949;28;1136;-47
2023/12/03 01:24:33;;;;;;;;;;;;;;;16.79;53.95;99780.16;4970335;28;1072;-51
2023/12/03 01:26:58;;;;;;;;;;;;;;;16.20;54.23;99788.81;4959753;28;1161;-47
2023/12/03 01:29:24;;;;;;;;;;;;;;;16.02;54.10;99789.44;4959871;28;1240;-46
2023/12/03 01:31:49;;;;;;;;;;;;;;;15.84;53.99;99797.13;4959767;28;1974;-48
2023/12/03 01:34:15;;;;;;;;;;;;;;;15.65;53.96;99786.28;4959802;28;861;-47
2023/12/03 01:36:40;;;;;;;;;;;;;;;15.70;54.40;99796.47;4959732;28;1053;-46
2023/12/03 01:39:06;;;;;;;;;;;;;;;16.84;54.22;99801.84;4917164;28;1266929;-48
2023/12/03 01:41:31;;;;;;;;;;;;;;;16.34;54.43;99798.22;4960766;28;1159;-46
2023/12/03 01:43:57;;;;;;;;;;;;;;;16.01;54.30;99796.56;4969236;28;1101;-45
2023/12/03 01:46:22;;;;;;;;;;;;;;;15.82;54.04;99791.94;4964348;28;947;-46
2023/12/03 01:48:48;;;;;;;;;;;;;;;15.73;54.09;99785.59;4960181;28;1029;-46
2023/12/03 01:51:14;;;;;;;;;;;;;;;15.58;53.82;99781.63;4958693;28;1910;-46
2023/12/03 01:53:39;;;;;;;;;;;;;;;15.92;54.95;99786.69;4960268;28;1066;-50
2023/12/03 01:56:05;;;;;;;;;;;;;;;17.00;53.84;99798.63;4960602;28;1125;-46
2023/12/03 01:58:31;;;;;;;;;;;;;;;16.71;53.75;99799.44;4960269;28;952;-48
2023/12/03 02:00:56;;;;;;;;;;;;;;;16.23;54.32;99799.16;4960293;28;1136;-50
2023/12/03 02:03:22;;;;;;;;;;;;;;;15.98;54.23;99794.16;4959340;28;1211;-45
2023/12/03 02:06:07;;;;;;;;;;;;;;;15.91;53.98;99803.59;4959116;28;1054;-52
2023/12/03 02:08:33;;;;;;;;;;;;;;;15.74;53.68;99799.72;4959608;28;1845;-48
2023/12/03 02:10:59;;;;;;;;;;;;;;;15.59;53.59;99804.50;4960024;28;1905;-46
2023/12/03 02:13:25;;;;;;;;;;;;;;;15.49;53.28;99804.44;4959952;28;1070;-43
2023/12/03 02:15:50;;;;;;;;;;;;;;;16.13;55.15;99807.91;4959864;28;1010;-51
2023/12/03 02:18:16;;;;;;;;;;;;;;;17.11;53.75;99808.34;4959876;28;1058;-45
2023/12/03 02:20:41;;;;;;;;;;;;;;;16.46;54.43;99813.09;4959661;28;1092;-44
2023/12/03 02:23:07;;;;;;;;;;;;;;;16.09;54.25;99803.84;4968865;28;914;-46
2023/12/03 02:25:33;;;;;;;;;;;;;;;15.94;54.04;99813.09;4958647;28;1146;-50
2023/12/03 02:27:58;;;;;;;;;;;;;;;15.76;53.55;99811.91;4959873;28;1148;-46
2023/12/03 02:30:24;;;;;;;;;;;;;;;15.64;53.45;99813.75;4959647;28;1910;-48
2023/12/03 02:32:49;;;;;;;;;;;;;;;15.72;54.55;99806.94;4960070;28;1120;-48
2023/12/03 02:35:15;;;;;;;;;;;;;;;16.87;54.43;99809.53;4959702;28;1041;-45
2023/12/03 02:37:40;;;;;;;;;;;;;;;16.65;54.24;99811.44;4959800;28;1180;-47
2023/12/03 02:40:06;;;;;;;;;;;;;;;16.19;54.58;99819.81;4958760;28;1253;-47
2023/12/03 02:42:32;;;;;;;;;;;;;;;15.97;54.07;99829.59;4959718;28;1161;-48
2023/12/03 02:44:57;;;;;;;;;;;;;;;15.81;53.97;99815.94;4959595;28;1089;-46
2023/12/03 02:47:23;;;;;;;;;;;;;;;15.67;53.60;99818.81;4959806;28;1033;-46
2023/12/03 02:49:48;;;;;;;;;;;;;;;15.58;53.71;99824.84;4959191;28;1197;-50
2023/12/03 02:52:14;;;;;;;;;;;;;;;15.51;53.19;99826.34;4959434;28;1902;-47
2023/12/03 02:54:39;;;;;;;;;;;;;;;15.55;54.05;99839.22;4959106;28;1101;-48
2023/12/03 02:57:05;;;;;;;;;;;;;;;16.63;54.87;99839.97;4959290;28;1116;-46
2023/12/03 02:59:31;;;;;;;;;;;;;;;17.25;53.04;99846.94;4959356;28;1231;-49
2023/12/03 03:01:56;;;;;;;;;;;;;;;16.50;54.31;99834.88;4958606;28;1105;-47
2023/12/03 03:04:22;;;;;;;;;;;;;;;16.14;54.27;99833.50;4957966;28;1234;-46
2023/12/03 03:06:47;;;;;;;;;;;;;;;15.94;53.94;99826.34;4959339;28;1557;-48
2023/12/03 03:09:13;;;;;;;;;;;;;;;15.83;53.75;99833.41;4959158;28;1050;-48
2023/12/03 03:11:38;;;;;;;;;;;;;;;15.66;53.60;99825.06;4959037;28;1895;-47
2023/12/03 03:14:04;;;;;;;;;;;;;;;15.90;54.98;99823.13;4958969;28;1243;-47
2023/12/03 03:16:29;;;;;;;;;;;;;;;16.98;54.30;99830.66;4959829;28;1085;-49
2023/12/03 03:18:55;;;;;;;;;;;;;;;16.43;54.33;99825.78;4958479;28;1053;-48
2023/12/03 03:21:20;;;;;;;;;;;;;;;16.07;54.32;99837.63;4958752;28;1124;-46
2023/12/03 03:23:46;;;;;;;;;;;;;;;15.90;54.24;99833.72;4986831;28;1207;-48
2023/12/03 03:26:11;;;;;;;;;;;;;;;15.74;53.89;99826.22;4958874;28;1053;-47
2023/12/03 03:28:37;;;;;;;;;;;;;;;15.90;55.12;99837.22;4958577;28;1085;-47
2023/12/03 03:31:02;;;;;;;;;;;;;;;16.80;54.22;99838.47;4958396;28;1910;-51
2023/12/03 03:33:28;;;;;;;;;;;;;;;16.21;54.89;99849.72;4960130;28;1132;-47
2023/12/03 03:35:53;;;;;;;;;;;;;;;15.93;54.32;99846.75;4969664;28;1184;-53
2023/12/03 03:38:19;;;;;;;;;;;;;;;15.81;54.00;99847.78;4958804;28;1243;-51
2023/12/03 03:40:44;;;;;;;;;;;;;;;15.70;53.94;99849.50;4958094;28;1109;-49
2023/12/03 03:43:10;;;;;;;;;;;;;;;16.28;55.52;99853.50;4958861;28;1069;-47
2023/12/03 03:45:36;;;;;;;;;;;;;;;17.10;53.52;99873.94;4958185;28;1089;-50
2023/12/03 03:48:01;;;;;;;;;;;;;;;16.40;54.37;99869.34;4958556;28;1053;-51
2023/12/03 03:50:27;;;;;;;;;;;;;;;16.09;54.12;99877.28;4958340;28;2014;-48
2023/12/03 03:52:52;;;;;;;;;;;;;;;15.94;53.89;99871.44;4958260;28;1224;-47
2023/12/03 03:55:18;;;;;;;;;;;;;;;15.80;53.70;99865.50;4958477;28;1047;-46
2023/12/03 03:57:43;;;;;;;;;;;;;;;15.69;53.40;99877.00;4958231;28;1137;-49
2023/12/03 04:00:10;;;;;;;;;;;;;;;16.05;55.10;99881.19;4958369;28;1200;-47
2023/12/03 04:02:38;;;;;;;;;;;;;;;17.06;53.84;99888.44;4957956;28;1288;-47
2023/12/03 04:05:04;;;;;;;;;;;;;;;16.40;54.37;99891.44;4958009;28;1041;-48
2023/12/03 04:07:30;;;;;;;;;;;;;;;16.05;54.38;99895.28;4956647;28;1090;-50
2023/12/03 04:09:55;;;;;;;;;;;;;;;15.94;54.29;99892.66;4958097;28;1108;-50
2023/12/03 04:12:21;;;;;;;;;;;;;;;15.72;53.84;99894.44;4960324;28;1918;-47
2023/12/03 04:14:46;;;;;;;;;;;;;;;15.62;53.72;99904.97;4969184;28;1092;-51
2023/12/03 04:17:12;;;;;;;;;;;;;;;15.79;54.94;99903.59;4945209;28;1085;-48
2023/12/03 04:19:37;;;;;;;;;;;;;;;16.89;54.50;99911.19;4957888;28;1215;-48
2023/12/03 04:22:03;;;;;;;;;;;;;;;16.52;54.51;99920.53;4970143;28;1104;-48
2023/12/03 04:24:28;;;;;;;;;;;;;;;16.09;54.54;99930.34;4957939;28;1085;-49
2023/12/03 04:26:54;;;;;;;;;;;;;;;15.89;54.55;99943.44;4958100;28;1097;-48
2023/12/03 04:29:19;;;;;;;;;;;;;;;15.74;53.88;99948.22;4958177;28;1073;-48
2023/12/03 04:31:45;;;;;;;;;;;;;;;15.61;53.94;99943.94;4957690;28;1914;-47
2023/12/03 04:34:10;;;;;;;;;;;;;;;15.56;53.72;99948.75;4956363;28;1589;-49
2023/12/03 04:36:36;;;;;;;;;;;;;;;15.43;53.47;99943.63;4957745;28;1076;-53
2023/12/03 04:39:01;;;;;;;;;;;;;;;15.86;55.16;99933.09;4957678;28;1069;-51
2023/12/03 04:41:33;;;;;;;;;;;;;;;16.94;54.47;99945.31;4957854;28;1128;-50
2023/12/03 04:43:59;;;;;;;;;;;;;;;16.80;54.04;99949.19;4957465;28;1076;-49
2023/12/03 04:46:25;;;;;;;;;;;;;;;16.22;54.58;99960.19;4957903;28;1173;-49
2023/12/03 04:48:51;;;;;;;;;;;;;;;16.03;54.49;99964.38;4957700;28;1161;-49
2023/12/03 04:51:16;;;;;;;;;;;;;;;15.79;54.15;99970.75;4957720;28;2075;-48
2023/12/03 04:53:42;;;;;;;;;;;;;;;15.75;53.95;99979.06;4957500;28;1204;-51
2023/12/03 04:56:08;;;;;;;;;;;;;;;15.62;53.91;99989.81;4957924;28;1208;-52
2023/12/03 04:58:33;;;;;;;;;;;;;;;16.47;55.41;99989.13;4957802;28;1049;-48
2023/12/03 05:00:59;;;;;;;;;;;;;;;17.36;53.28;99992.22;4974861;28;1097;-50
2023/12/03 05:03:25;;;;;;;;;;;;;;;16.61;54.29;100001.25;4976581;28;1076;-46
2023/12/03 05:05:51;;;;;;;;;;;;;;;16.23;54.32;100003.50;4961866;28;1235;-46
2023/12/03 05:08:17;;;;;;;;;;;;;;;16.01;54.24;100013.25;4957835;28;1143;-49
2023/12/03 05:10:42;;;;;;;;;;;;;;;15.88;53.69;100029.31;4961096;28;1985;-52
2023/12/03 05:13:08;;;;;;;;;;;;;;;15.76;53.74;100033.78;4967760;28;1325;-51
2023/12/03 05:15:34;;;;;;;;;;;;;;;15.66;53.71;100029.22;4964958;28;859;-52
2023/12/03 05:17:59;;;;;;;;;;;;;;;15.84;55.01;100036.66;4976677;28;1085;-51
2023/12/03 05:20:25;;;;;;;;;;;;;;;16.94;54.49;100043.63;4974576;28;1045;-48
2023/12/03 05:22:51;;;;;;;;;;;;;;;16.65;54.36;100055.75;4960360;28;2977;-47
2023/12/03 05:25:17;;;;;;;;;;;;;;;16.12;54.48;100058.31;4959445;28;1610;-53
2023/12/03 05:27:42;;;;;;;;;;;;;;;15.92;54.46;100067.84;4971248;28;1109;-49
2023/12/03 05:30:08;;;;;;;;;;;;;;;16.73;53.63;100061.25;4975354;28;1022;-52
2023/12/03 05:32:33;;;;;;;;;;;;;;;15.53;53.63;100061.19;4970887;28;1910;-53
2023/12/03 05:34:59;;;;;;;;;;;;;;;15.30;52.54;100060.34;4965995;28;1602;-51
2023/12/03 05:37:28;;;;;;;;;;;;;;;15.07;50.77;100073.59;4961181;28;1093;-50
2023/12/03 05:39:54;;;;;;;;;;;;;;;15.00;50.40;100077.66;4972617;28;1237;-48
2023/12/03 05:42:20;;;;;;;;;;;;;;;14.85;49.42;100074.41;4968620;28;1080;-53
2023/12/03 05:44:46;;;;;;;;;;;;;;;14.71;48.94;100080.72;4977333;28;1049;-53
2023/12/03 05:47:12;;;;;;;;;;;;;;;14.66;48.58;100084.56;4961280;28;1022;-48
2023/12/03 05:49:38;;;;;;;;;;;;;;;14.52;48.46;100095.34;4961639;28;1466;-51
2023/12/03 05:52:03;;;;;;;;;;;;;;;15.47;51.54;100104.09;4975034;28;2315;-51
2023/12/03 05:54:29;;;;;;;;;;;;;;;14.97;50.90;100101.75;4970763;28;1058;-49
2023/12/03 05:56:54;;;;;;;;;;;;;;;14.74;49.83;100099.88;4979037;28;1052;-52
2023/12/03 05:59:22;;;;;;;;;;;;;;;14.62;49.10;100093.69;4971508;28;1119;-49
2023/12/03 06:01:48;;;;;;;;;;;;;;;14.54;48.33;100094.28;4978937;28;1077;-52
2023/12/03 06:04:13;;;;;;;;;;;;;;;14.50;48.23;100100.75;4966285;28;1109;-51
2023/12/03 06:06:39;;;;;;;;;;;;;;;15.26;50.30;100115.41;4970755;28;986;-52
2023/12/03 06:09:04;;;;;;;;;;;;;;;14.93;50.27;100114.41;4972815;28;1501;-51
2023/12/03 06:11:32;;;;;;;;;;;;;;;14.75;49.73;100129.81;4967858;28;1935;-50
2023/12/03 06:13:57;;;;;;;;;;;;;;;15.62;51.03;100131.19;4979253;28;1066;-52
2023/12/03 06:16:23;;;;;;;;;;;;;;;15.06;50.37;100143.44;4979086;28;1061;-52
2023/12/03 06:18:49;;;;;;;;;;;;;;;14.76;49.56;100158.84;4964046;28;1096;-54
2023/12/03 06:21:14;;;;;;;;;;;;;;;14.78;48.53;100164.03;4968563;28;1137;-52
2023/12/03 06:23:40;;;;;;;;;;;;;;;14.59;47.75;100161.91;4963583;28;2106;-50
2023/12/03 06:26:05;;;;;;;;;;;;;;;14.75;48.61;100157.16;4968009;28;1053;-51
2023/12/03 06:28:31;;;;;;;;;;;;;;;15.37;50.14;100162.28;4978404;28;1099;-55
2023/12/03 06:30:57;;;;;;;;;;;;;;;14.85;49.30;100157.34;4978925;28;1981;-50
2023/12/03 06:33:22;;;;;;;;;;;;;;;14.75;48.63;100162.44;4977048;28;1012;-53
2023/12/03 06:35:49;;;;;;;;;;;;;;;14.88;49.27;100154.44;4959982;28;866;-51
2023/12/03 06:38:15;;;;;;;;;;;;;;;15.73;50.08;100151.53;4960665;28;1318;-51
2023/12/03 06:40:41;;;;;;;;;;;;;;;15.05;49.76;100158.47;4978565;28;994;-51
2023/12/03 06:43:07;;;;;;;;;;;;;;;14.85;49.12;100167.94;4976827;28;1016;-52
2023/12/03 06:45:32;;;;;;;;;;;;;;;14.77;47.84;100175.56;4967315;28;1089;-52
2023/12/03 06:47:58;;;;;;;;;;;;;;;14.61;47.78;100170.56;4969684;28;993;-50
2023/12/03 06:50:23;;;;;;;;;;;;;;;14.59;46.81;100176.00;4978117;28;1048;-48
2023/12/03 06:52:49;;;;;;;;;;;;;;;15.69;50.10;100178.44;4959089;28;2298;-49
2023/12/03 06:55:14;;;;;;;;;;;;;;;15.21;49.80;100191.75;4970126;28;1096;-51
2023/12/03 06:57:40;;;;;;;;;;;;;;;14.92;49.30;100195.66;4973027;28;1145;-49
2023/12/03 07:00:09;;;;;;;;;;;;;;;14.83;47.94;100196.31;4975409;28;886;-46
2023/12/03 07:02:35;;;;;;;;;;;;;;;14.96;48.47;100201.56;4964798;28;1158;-48
2023/12/03 07:05:00;;;;;;;;;;;;;;;15.96;50.07;100206.41;4976689;28;1053;-48
2023/12/03 07:07:26;;;;;;;;;;;;;;;15.20;49.72;100203.31;4963247;28;1093;-49
2023/12/03 07:09:51;;;;;;;;;;;;;;;14.94;49.02;100211.44;4958884;28;1011;-49
2023/12/03 07:12:17;;;;;;;;;;;;;;;14.88;47.90;100210.06;4962418;28;1907;-50
2023/12/03 07:14:43;;;;;;;;;;;;;;;15.39;49.52;100215.16;4966539;28;1037;-48
2023/12/03 07:17:08;;;;;;;;;;;;;;;15.09;49.17;100204.13;4977556;28;1017;-49
2023/12/03 07:19:34;;;;;;;;;;;;;;;14.86;48.21;100204.06;4977619;28;1056;-48
2023/12/03 07:21:59;;;;;;;;;;;;;;;15.77;49.14;100211.34;4974595;28;2381;-49
2023/12/03 07:24:25;;;;;;;;;;;;;;;15.10;49.01;100212.94;4961203;28;973;-49
2023/12/03 07:26:50;;;;;;;;;;;;;;;14.95;48.00;100215.75;4965007;28;1048;-46
2023/12/03 07:29:18;;;;;;;;;;;;;;;14.77;47.89;100226.72;4977163;28;1013;-50
2023/12/03 07:31:44;;;;;;;;;;;;;;;14.73;47.16;100227.91;4976875;28;1915;-46
2023/12/03 07:34:09;;;;;;;;;;;;;;;15.98;49.45;100241.63;4969433;28;1112;-46
2023/12/03 07:36:35;;;;;;;;;;;;;;;15.36;49.63;100242.75;4970341;28;1053;-46
2023/12/03 07:39:00;;;;;;;;;;;;;;;15.04;48.94;100252.16;4958371;28;1164;-49
2023/12/03 07:41:26;;;;;;;;;;;;;;;15.01;47.66;100252.41;4971948;28;1044;-47
2023/12/03 07:43:51;;;;;;;;;;;;;;;14.99;48.64;100237.56;4970073;28;1053;-50
2023/12/03 07:46:17;;;;;;;;;;;;;;;15.82;49.42;100244.59;4971207;28;1324;-47
2023/12/03 07:48:43;;;;;;;;;;;;;;;15.24;49.11;100241.88;4961532;28;894;-46
2023/12/03 07:51:09;;;;;;;;;;;;;;;15.01;48.31;100238.31;4959155;28;1906;-46
2023/12/03 07:53:34;;;;;;;;;;;;;;;14.92;47.60;100253.06;4964525;28;2560;-49
2023/12/03 07:56:00;;;;;;;;;;;;;;;14.79;46.96;100253.94;4975331;28;1040;-48
2023/12/03 07:58:25;;;;;;;;;;;;;;;16.00;48.73;100271.53;4957778;28;1127;-46
2023/12/03 08:00:51;;;;;;;;;;;;;;;15.17;48.83;100264.47;4958934;28;1053;-47
2023/12/03 08:03:16;;;;;;;;;;;;;;;14.99;47.97;100275.50;4965914;28;1049;-46
2023/12/03 08:05:42;;;;;;;;;;;;;;;15.01;47.33;100281.53;4964222;28;1164;-46
2023/12/03 08:08:07;;;;;;;;;;;;;;;14.80;46.90;100268.91;4969406;28;1097;-48
2023/12/03 08:10:33;;;;;;;;;;;;;;;15.73;48.89;100278.00;4971984;28;978;-49
2023/12/03 08:12:58;;;;;;;;;;;;;;;15.50;49.31;100285.91;4964478;28;1979;-45
2023/12/03 08:15:24;;;;;;;;;;;;;;;15.04;48.49;100291.06;4958943;28;986;-46
2023/12/03 08:17:49;;;;;;;;;;;;;;;14.84;47.77;100271.31;4977005;28;1112;-47
2023/12/03 08:20:15;;;;;;;;;;;;;;;15.36;48.69;100287.81;4975561;28;1083;-45
2023/12/03 08:22:40;;;;;;;;;;;;;;;15.98;49.30;100289.38;4950728;29;2275;-52
2023/12/03 08:25:07;;;;;;;;;;;;;;;15.32;49.00;100280.19;4954653;28;1157;-48
2023/12/03 08:27:32;;;;;;;;;;;;;;;15.20;47.85;100274.84;4957747;28;1053;-51
2023/12/03 08:29:58;;;;;;;;;;;;;;;15.03;47.57;100279.59;4959926;28;1255;-51
2023/12/03 08:32:23;;;;;;;;;;;;;;;16.17;49.68;100288.78;4976416;28;1894;-51
2023/12/03 08:34:49;;;;;;;;;;;;;;;15.52;49.59;100287.47;4976508;28;1152;-49
2023/12/03 08:37:15;;;;;;;;;;;;;;;15.14;48.58;100280.63;4969943;28;939;-48
2023/12/03 08:39:41;;;;;;;;;;;;;;;15.13;47.32;100276.28;4976269;28;1202;-48
2023/12/03 08:42:07;;;;;;;;;;;;;;;14.99;47.34;100294.03;4969431;28;1129;-48
2023/12/03 08:44:33;;;;;;;;;;;;;;;14.92;46.74;100290.13;4965445;28;1222;-46
2023/12/03 08:46:59;;;;;;;;;;;;;;;14.87;46.06;100289.63;4957624;28;965;-49
2023/12/03 08:49:24;;;;;;;;;;;;;;;14.72;46.03;100281.81;4957994;28;906;-46
2023/12/03 08:51:50;;;;;;;;;;;;;;;15.89;48.56;100294.44;4969337;28;2412;-49
2023/12/03 08:54:16;;;;;;;;;;;;;;;15.46;48.63;100295.91;4964405;28;1177;-51
2023/12/03 08:56:42;;;;;;;;;;;;;;;15.14;48.12;100301.81;4964260;28;1523;-48
2023/12/03 08:59:08;;;;;;;;;;;;;;;14.93;47.55;100305.91;4975043;28;1013;-47
2023/12/03 09:01:33;;;;;;;;;;;;;;;16.01;48.63;100311.25;4964686;28;849;-49
2023/12/03 09:04:04;;;;;;;;;;;;;;;15.24;48.71;100299.31;4974081;28;1046;-49
2023/12/03 09:06:31;;;;;;;;;;;;;;;15.07;47.76;100293.47;4979873;28;1014;-48
2023/12/03 09:08:56;;;;;;;;;;;;;;;14.91;47.27;100283.16;4975713;28;1064;-47
2023/12/03 09:11:22;;;;;;;;;;;;;;;15.77;48.71;100276.78;4978951;28;1903;-45
2023/12/03 09:13:49;;;;;;;;;;;;;;;15.19;48.32;100294.38;4975994;28;1120;-47
2023/12/03 09:16:15;;;;;;;;;;;;;;;15.01;47.95;100293.94;4980019;28;1029;-50
2023/12/03 09:18:42;;;;;;;;;;;;;;;15.03;47.19;100297.31;4965731;28;1422;-48
2023/12/03 09:21:14;;;;;;;;;;;;;;;14.97;46.80;100309.19;4979479;28;1127;-48
2023/12/03 09:23:39;;;;;;;;;;;;;;;14.90;45.96;100306.16;4964546;28;2584;-48
2023/12/03 09:26:05;;;;;;;;;;;;;;;15.52;48.24;100314.00;4962651;28;883;-47
2023/12/03 09:28:34;;;;;;;;;;;;;;;15.43;48.52;100315.53;4973248;28;1399;-43
2023/12/03 09:31:00;;;;;;;;;;;;;;;15.24;47.76;100321.38;4972223;28;1919;-47
2023/12/03 09:33:26;;;;;;;;;;;;;;;14.97;47.64;100317.13;4962153;28;1089;-46
2023/12/03 09:35:53;;;;;;;;;;;;;;;14.87;46.65;100316.13;4979610;28;1057;-46
2023/12/03 09:38:20;;;;;;;;;;;;;;;14.84;46.57;100316.34;4976008;28;1169;-49
2023/12/03 09:40:47;;;;;;;;;;;;;;;15.52;47.59;100321.94;4979964;28;1103;-45
2023/12/03 09:43:15;;;;;;;;;;;;;;;15.60;48.85;100317.88;4977843;28;1115;-45
2023/12/03 09:45:42;;;;;;;;;;;;;;;15.26;48.31;100321.25;4969624;28;1097;-51
2023/12/03 09:48:08;;;;;;;;;;;;;;;15.09;47.43;100307.44;4974952;28;1155;-46
2023/12/03 09:50:34;;;;;;;;;;;;;;;14.93;47.33;100307.75;4959211;28;971;-45
2023/12/03 09:53:02;;;;;;;;;;;;;;;15.81;48.79;100323.34;4960938;28;2064;-47
2023/12/03 09:55:29;;;;;;;;;;;;;;;15.32;48.18;100317.28;4976901;28;1084;-50
2023/12/03 09:57:56;;;;;;;;;;;;;;;15.12;47.76;100317.81;4961885;28;1170;-48
2023/12/03 10:00:23;;;;;;;;;;;;;;;14.98;46.81;100316.16;4968310;28;1117;-46
2023/12/03 10:02:53;;;;;;;;;;;;;;;14.92;46.48;100313.97;4975036;28;1050;-44
2023/12/03 10:05:18;;;;;;;;;;;;;;;14.89;45.87;100330.09;4969031;28;1145;-48
2023/12/03 10:07:45;;;;;;;;;;;;;;;16.20;48.13;100332.84;4971664;28;1093;-47
2023/12/03 10:10:13;;;;;;;;;;;;;;;15.35;48.74;100330.34;4969877;28;1439;-46
2023/12/03 10:12:41;;;;;;;;;;;;;;;15.08;47.75;100318.16;4974188;28;1981;-45
2023/12/03 10:15:08;;;;;;;;;;;;;;;14.97;47.56;100313.63;4970454;28;1122;-43
2023/12/03 10:17:35;;;;;;;;;;;;;;;14.83;47.15;100315.47;4965912;28;997;-49
2023/12/03 10:20:20;;;;;;;;;;;;;;;14.77;46.48;100316.75;4967498;28;1160;-48
2023/12/03 10:22:47;;;;;;;;;;;;;;;15.59;47.81;100327.63;4941300;28;2283;-50
2023/12/03 10:25:30;;;;;;;;;;;;;;;15.15;47.99;100328.19;4961591;28;1254;-50
2023/12/03 10:27:56;;;;;;;;;;;;;;;14.92;47.15;100314.84;4970639;28;1021;-48
2023/12/03 10:30:22;;;;;;;;;;;;;;;14.90;46.98;100324.69;4974872;28;1071;-48
2023/12/03 10:32:48;;;;;;;;;;;;;;;15.60;48.11;100331.97;4968525;28;1907;-51
2023/12/03 10:35:15;;;;;;;;;;;;;;;15.37;48.30;100331.03;4961968;28;1255;-52
2023/12/03 10:37:42;;;;;;;;;;;;;;;15.13;47.54;100340.69;4967729;28;1063;-48
2023/12/03 10:40:11;;;;;;;;;;;;;;;14.96;47.43;100341.09;4977013;28;1140;-49
2023/12/03 10:42:37;;;;;;;;;;;;;;;15.29;48.17;100340.44;4977487;28;1041;-45
2023/12/03 10:45:07;;;;;;;;;;;;;;;15.54;48.38;100340.38;4972961;28;1090;-46
2023/12/03 10:47:33;;;;;;;;;;;;;;;15.22;47.85;100339.19;4969390;28;1324;-52
2023/12/03 10:50:05;;;;;;;;;;;;;;;15.02;47.48;100341.50;4965803;28;1081;-51
2023/12/03 10:52:31;;;;;;;;;;;;;;;14.91;46.64;100338.78;4958048;28;2439;-48
2023/12/03 10:54:57;;;;;;;;;;;;;;;14.92;46.16;100341.31;4964375;28;1047;-49
2023/12/03 10:57:33;;;;;;;;;;;;;;;14.84;45.88;100334.88;4965269;28;1068;-51
2023/12/03 11:00:11;;;;;;;;;;;;;;;14.73;45.86;100327.69;4953979;28;1041;-51
2023/12/03 11:02:47;;;;;;;;;;;;;;;15.87;47.74;100328.19;4977621;28;910;-50
2023/12/03 11:05:33;;;;;;;;;;;;;;;15.31;48.56;100337.66;4966310;28;1173;-52
2023/12/03 11:08:01;;;;;;;;;;;;;;;15.03;47.80;100345.81;4977294;28;1446;-47
2023/12/03 11:10:27;;;;;;;;;;;;;;;14.85;47.34;100352.47;4965313;28;1067;-49
2023/12/03 11:12:53;;;;;;;;;;;;;;;15.51;48.27;100360.03;4964199;28;1910;-48
2023/12/03 11:15:23;;;;;;;;;;;;;;;15.40;48.26;100359.97;4957726;28;1151;-51
2023/12/03 11:17:51;;;;;;;;;;;;;;;15.01;47.81;100358.34;4969686;28;1212;-50
2023/12/03 11:20:32;;;;;;;;;;;;;;;14.98;47.30;100355.91;4972510;28;1013;-51
2023/12/03 11:23:01;;;;;;;;;;;;;;;15.91;48.02;100355.31;4959168;28;2605;-49
2023/12/03 11:25:28;;;;;;;;;;;;;;;15.23;48.63;100353.28;4970515;28;1078;-50
2023/12/03 11:27:54;;;;;;;;;;;;;;;15.03;47.62;100355.59;4977845;28;1025;-49
2023/12/03 11:30:35;;;;;;;;;;;;;;;14.92;47.16;100349.25;4973892;28;1136;-51
2023/12/03 11:33:00;;;;;;;;;;;;;;;14.83;46.50;100347.25;4969854;28;1971;-47
2023/12/03 11:35:26;;;;;;;;;;;;;;;15.46;47.72;100356.88;4972202;28;1152;-49
2023/12/03 11:37:51;;;;;;;;;;;;;;;15.07;47.88;100365.00;4964407;28;1204;-52
2023/12/03 11:40:20;;;;;;;;;;;;;;;14.97;46.95;100372.75;4970671;28;1154;-47
2023/12/03 11:42:46;;;;;;;;;;;;;;;14.80;46.61;100369.53;4957948;28;1476;-50
2023/12/03 11:45:22;;;;;;;;;;;;;;;15.77;47.89;100373.13;4965341;28;1081;-48
2023/12/03 11:48:06;;;;;;;;;;;;;;;15.37;48.00;100374.31;4963036;28;1192;-46
2023/12/03 11:50:39;;;;;;;;;;;;;;;14.99;47.49;100380.59;4965241;28;893;-48
2023/12/03 11:53:06;;;;;;;;;;;;;;;14.89;47.11;100391.88;4956505;28;2337;-50
2023/12/03 11:55:32;;;;;;;;;;;;;;;15.71;48.22;100392.16;4960962;28;1228;-52
2023/12/03 11:57:58;;;;;;;;;;;;;;;15.52;48.42;100392.66;4965744;28;1041;-49
2023/12/03 12:00:24;;;;;;;;;;;;;;;15.27;48.09;100398.00;4976409;28;1040;-51
2023/12/03 12:02:51;;;;;;;;;;;;;;;15.01;47.18;100399.88;4971432;28;905;-53
2023/12/03 12:05:16;;;;;;;;;;;;;;;14.97;46.89;100404.56;4959692;28;1310;-49
2023/12/03 12:07:42;;;;;;;;;;;;;;;16.19;48.49;100406.28;4957823;28;1156;-52
2023/12/03 12:10:07;;;;;;;;;;;;;;;15.50;48.48;100419.31;4970301;28;1107;-47
2023/12/03 12:12:34;;;;;;;;;;;;;;;15.24;47.82;100405.31;4954646;28;1989;-49
2023/12/03 12:15:00;;;;;;;;;;;;;;;15.03;47.03;100404.09;4957585;28;1295;-50
2023/12/03 12:17:26;;;;;;;;;;;;;;;14.99;46.40;100410.59;4958981;28;986;-50
2023/12/03 12:19:51;;;;;;;;;;;;;;;16.06;48.11;100416.16;4963731;28;1196;-53
2023/12/03 12:22:17;;;;;;;;;;;;;;;15.40;47.98;100412.97;4957754;28;2135;-51
2023/12/03 12:24:45;;;;;;;;;;;;;;;15.07;47.63;100407.38;4976090;28;1089;-51
2023/12/03 12:27:11;;;;;;;;;;;;;;;16.25;48.54;100415.56;4973578;28;839;-45
2023/12/03 12:29:36;;;;;;;;;;;;;;;15.52;48.45;100413.88;4962909;28;995;-50
2023/12/03 12:32:02;;;;;;;;;;;;;;;15.23;47.66;100408.94;4972989;28;1907;-46
2023/12/03 12:34:29;;;;;;;;;;;;;;;15.11;47.33;100416.81;4958152;28;1195;-53
2023/12/03 12:37:07;;;;;;;;;;;;;;;14.91;46.97;100416.41;4965408;28;1093;-50
2023/12/03 12:39:33;;;;;;;;;;;;;;;16.02;48.37;100405.78;4979877;28;1197;-50
2023/12/03 12:42:00;;;;;;;;;;;;;;;15.41;48.24;100406.72;4980528;28;1044;-47
2023/12/03 12:44:39;;;;;;;;;;;;;;;15.21;47.22;100408.19;4966140;28;1113;-50
2023/12/03 12:47:04;;;;;;;;;;;;;;;14.98;46.63;100406.22;4973162;28;1068;-50
2023/12/03 12:49:31;;;;;;;;;;;;;;;15.41;47.63;100420.81;4973470;28;1210;-50